메인 페이지
METAR-TAF:

METAR-TAF

공항 :

Chicago Rockford International Airport

록퍼드, 일리노이, 미국

위도: 42-11-34N, 경도: 089-05-36W, 고도: 224m

현재 날씨관측

예보는 50분 전, 15:54시(UTC)에 발표되었습니다.
8kt
온도
기압 1024 hPa
시정: 16.1km
고도 12000ft 상공 구름 조금

METAR: KRFD 051554Z 09008KT 10SM FEW120 009/000 A3023 RMK T00890000

시각: 11:44 (16:44 UTC)

예보

예보는 1 시간 39분 전, 15:05시(UTC)에 발표되었습니다.
예보 대상 시간: 05일 15시부터 06일 12시까지 (UTC)
5kt
시정: 10km
고도 12000ft 상공 구름 보통

TAF: KRFD 051505Z 0515/0612 10005KT P6SM SCT120

4,000개 이상의 공항 관측 자료 및 예보 (METAR 및 TAF 보고).

지도상에서 검색 가능한 기상관측소가 노란 점과 빨간 점으로 표시되어 있습니다.

기상관측소 명을 보려면 표시 위로 마우스를 이동하세요.

날씨 관측과 예보를 보려면 클릭하세요.

지도 변경 : 확대하려면 엑스 표시가 있는 녹색 버튼, 축소하려면 빼기 표시가 있는 녹색 버튼, 다음 페이지의 지도를 보려면 녹색 화살표를 클릭하세요.


METAR-TAF: